createdAt,value
2023-02-23T00:00:18.953Z,9.763179
2023-02-23T00:01:19.997Z,9.763179
2023-02-23T02:05:52.311Z,9.762897
2023-02-23T02:06:52.246Z,9.762812
2023-02-23T02:07:52.232Z,9.762720
2023-02-23T02:08:52.271Z,9.762800
2023-02-23T02:09:52.235Z,9.762877
2023-02-23T02:10:52.237Z,9.762856
2023-02-23T02:11:52.233Z,9.762761
2023-02-23T02:12:52.206Z,9.762810
2023-02-23T02:13:52.203Z,9.762741
2023-02-23T02:14:52.190Z,9.762630
2023-02-23T02:15:52.194Z,9.762994
2023-02-23T02:16:52.169Z,9.762861
2023-02-23T02:17:52.156Z,9.762491
2023-02-23T02:18:52.158Z,9.762780
2023-02-23T02:19:52.143Z,9.762311
2023-02-23T02:20:52.088Z,9.764075
2023-02-23T02:21:53.107Z,9.762851
2023-02-23T02:22:52.096Z,9.759756
2023-02-23T02:23:52.141Z,9.756385
2023-02-23T02:24:52.111Z,9.756385
2023-02-23T02:25:52.059Z,9.756385
2023-02-23T02:26:52.091Z,9.756385
2023-02-23T02:27:52.066Z,9.756385
2023-02-23T02:28:52.047Z,9.756385
2023-02-23T02:29:52.037Z,9.756385
2023-02-23T02:30:52.057Z,9.756385
2023-02-23T02:31:52.052Z,9.756385
2023-02-23T02:32:51.985Z,9.756385
2023-02-23T02:33:52.025Z,9.756385
2023-02-23T02:34:51.975Z,10.057411
2023-02-23T02:35:51.990Z,10.055399
2023-02-23T02:36:51.999Z,10.055399
2023-02-23T02:37:51.986Z,10.055399
2023-02-23T02:38:51.939Z,10.055399
2023-02-23T02:39:51.952Z,10.055399
2023-02-23T02:40:51.938Z,10.055399
2023-02-23T02:41:51.919Z,10.055399
2023-02-23T02:42:51.935Z,10.055399
2023-02-23T02:43:51.926Z,10.055399
2023-02-23T02:44:51.901Z,10.055399
2023-02-23T02:45:51.901Z,10.055399
2023-02-23T02:46:51.902Z,10.055399
2023-02-23T02:47:51.887Z,10.055399
2023-02-23T02:48:51.862Z,10.055399
2023-02-23T02:49:51.865Z,10.055399
2023-02-23T02:50:51.822Z,10.055399
2023-02-23T02:51:51.816Z,10.055399
2023-02-23T02:52:51.791Z,10.055399
2023-02-23T02:53:51.827Z,10.055399
2023-02-23T02:54:51.811Z,10.055399
2023-02-23T02:55:51.766Z,9.762775
2023-02-23T02:56:51.769Z,9.762734
2023-02-23T02:57:51.753Z,9.762692
2023-02-23T02:58:51.725Z,9.762767
2023-02-23T02:59:51.769Z,9.762846
2023-02-23T03:00:51.745Z,9.762959
2023-02-23T03:01:51.749Z,9.762851
2023-02-23T03:02:51.706Z,9.762772
2023-02-23T03:03:51.714Z,9.762642
2023-02-23T03:04:51.713Z,9.762780
2023-02-23T03:05:51.655Z,9.762650
2023-02-23T03:06:51.681Z,9.762819
2023-02-23T03:07:51.675Z,9.762766
2023-02-23T03:08:51.672Z,9.762633
2023-02-23T03:09:51.653Z,9.763002
2023-02-23T03:10:51.637Z,9.762751
2023-02-23T03:11:53.948Z,9.762667
2023-02-23T03:12:51.618Z,9.762669
2023-02-23T03:13:51.607Z,9.762682
2023-02-23T03:14:51.608Z,9.762797
2023-02-23T03:15:51.617Z,9.762318
2023-02-23T03:16:51.566Z,9.762271
2023-02-23T03:17:51.537Z,9.763011
2023-02-23T03:18:51.629Z,9.763316
2023-02-23T03:19:51.537Z,9.763387
2023-02-23T03:20:52.588Z,9.762970
2023-02-23T03:21:51.533Z,9.762967
2023-02-23T03:22:51.512Z,9.762880
2023-02-23T03:23:51.504Z,9.763114
2023-02-23T03:24:51.515Z,9.762845
2023-02-23T03:25:51.482Z,9.762806
2023-02-23T03:26:51.465Z,9.762936
2023-02-23T03:27:51.493Z,9.763104
2023-02-23T03:28:51.467Z,9.762561
2023-02-23T03:29:51.451Z,9.762654
2023-02-23T03:30:51.499Z,9.762663
2023-02-23T03:31:51.530Z,9.762672
2023-02-23T03:32:51.452Z,9.762794
2023-02-23T03:33:51.428Z,9.762656
2023-02-23T03:34:51.403Z,9.762831
2023-02-23T03:35:51.401Z,9.762800
2023-02-23T03:36:51.355Z,9.762403
2023-02-23T03:37:51.365Z,9.762590
2023-02-23T03:38:51.382Z,9.762706
2023-02-23T03:39:51.348Z,9.762687
2023-02-23T03:40:51.338Z,9.762777
2023-02-23T03:41:51.319Z,9.762744
2023-02-23T03:42:51.325Z,9.762819
2023-02-23T03:43:51.307Z,9.762769
2023-02-23T03:44:51.344Z,9.762680
2023-02-23T03:45:51.359Z,9.762693
2023-02-23T03:46:51.273Z,9.762702
2023-02-23T03:47:51.268Z,9.762769
2023-02-23T03:48:51.264Z,9.762886
2023-02-23T03:49:51.239Z,9.762906
2023-02-23T03:50:51.261Z,9.762561
2023-02-23T03:51:51.217Z,9.762681
2023-02-23T03:52:51.204Z,9.762815
2023-02-23T03:53:51.196Z,9.762685
2023-02-23T03:54:51.208Z,9.762737
2023-02-23T03:55:51.206Z,9.762842
2023-02-23T03:56:51.164Z,9.762794
2023-02-23T03:57:51.170Z,9.762764
2023-02-23T03:58:51.135Z,9.762788
2023-02-23T03:59:51.124Z,9.762712
2023-02-23T04:00:51.149Z,9.763017
2023-02-23T04:01:51.151Z,9.762798
2023-02-23T04:02:51.106Z,9.762562
2023-02-23T04:03:51.221Z,9.763008
2023-02-23T04:04:51.083Z,9.762787
2023-02-23T04:05:51.090Z,9.762730
2023-02-23T04:06:51.103Z,9.762843
2023-02-23T04:07:51.049Z,9.762927
2023-02-23T04:08:51.072Z,9.762897
2023-02-23T04:09:51.044Z,9.762595
2023-02-23T04:10:51.028Z,9.762905
2023-02-23T04:11:51.027Z,9.762691
2023-02-23T04:12:51.027Z,9.762639
2023-02-23T04:13:51.034Z,9.762772
2023-02-23T04:14:50.980Z,9.763072
2023-02-23T04:15:51.013Z,9.762796
2023-02-23T04:16:50.991Z,9.762824
2023-02-23T04:17:50.953Z,9.762547
2023-02-23T04:18:50.978Z,9.761995
2023-02-23T04:19:50.937Z,9.762218
2023-02-23T04:20:51.021Z,9.762715
2023-02-23T04:21:50.927Z,9.762702
2023-02-23T04:22:50.872Z,9.762794
2023-02-23T04:23:50.894Z,9.762598
2023-02-23T04:24:50.875Z,9.762806
2023-02-23T04:25:50.929Z,9.762855
2023-02-23T04:26:50.895Z,9.762814
2023-02-23T04:27:50.874Z,9.762788
2023-02-23T04:28:50.823Z,9.762917
2023-02-23T04:29:50.807Z,9.762977
2023-02-23T04:30:50.867Z,9.763128
2023-02-23T04:31:50.911Z,9.762977
2023-02-23T04:32:50.859Z,9.763059
2023-02-23T04:33:50.777Z,9.762240
2023-02-23T04:34:50.798Z,9.763120
2023-02-23T04:35:50.790Z,9.763028
2023-02-23T04:36:50.766Z,9.762812
2023-02-23T04:37:50.756Z,9.762654
2023-02-23T04:38:50.737Z,9.762662
2023-02-23T04:39:50.724Z,9.762646
2023-02-23T04:40:50.750Z,9.762953
2023-02-23T04:41:50.727Z,9.762702
2023-02-23T04:42:50.712Z,9.762839
2023-02-23T04:43:50.675Z,9.762760
2023-02-23T04:44:50.687Z,9.762881
2023-02-23T04:45:50.720Z,9.763005
2023-02-23T04:46:50.664Z,9.762920
2023-02-23T04:47:50.651Z,9.762814
2023-02-23T04:48:51.645Z,9.762981
2023-02-23T04:49:50.637Z,9.762768
2023-02-23T04:50:50.662Z,9.762497
2023-02-23T04:51:50.642Z,9.762795
2023-02-23T04:52:50.637Z,9.758016
2023-02-23T04:53:50.608Z,9.747775
2023-02-23T04:54:50.600Z,9.745335
2023-02-23T04:55:50.594Z,9.745335
2023-02-23T04:56:50.600Z,9.745335
2023-02-23T04:57:50.551Z,9.745335
2023-02-23T04:58:50.561Z,9.745335
2023-02-23T04:59:50.567Z,9.745335
2023-02-23T05:00:50.547Z,9.745335
2023-02-23T05:01:50.533Z,9.745335
2023-02-23T05:02:50.882Z,9.745335
2023-02-23T05:03:51.526Z,9.745335
2023-02-23T05:04:50.517Z,9.745335
2023-02-23T05:05:50.507Z,9.763058
2023-02-23T05:06:50.495Z,9.763080
2023-02-23T05:07:50.481Z,9.762883
2023-02-23T05:08:50.464Z,9.762857
2023-02-23T05:09:50.479Z,9.762774
2023-02-23T05:10:50.447Z,9.762749
2023-02-23T05:11:50.476Z,9.762796
2023-02-23T05:12:50.481Z,9.762755
2023-02-23T05:13:50.413Z,9.762620
2023-02-23T05:14:50.422Z,9.762686
2023-02-23T05:15:50.470Z,9.762781
2023-02-23T05:16:50.459Z,9.762351
2023-02-23T05:17:50.362Z,9.762691
2023-02-23T05:18:50.374Z,9.762838
2023-02-23T05:19:50.348Z,9.762576
2023-02-23T05:20:50.348Z,9.762538
2023-02-23T05:21:50.406Z,9.762549
2023-02-23T05:22:50.314Z,9.762577
2023-02-23T05:23:50.325Z,9.761929
2023-02-23T05:24:50.315Z,9.761981
2023-02-23T05:25:50.291Z,9.762403
2023-02-23T05:26:50.305Z,9.762774
2023-02-23T05:27:50.278Z,9.762758
2023-02-23T05:28:50.286Z,9.762819
2023-02-23T05:29:50.245Z,9.762813
2023-02-23T05:30:50.304Z,9.762788
2023-02-23T05:31:50.342Z,9.763061
2023-02-23T05:32:50.262Z,9.762846
2023-02-23T05:33:50.275Z,9.763072
2023-02-23T05:34:50.200Z,9.762796
2023-02-23T05:35:50.203Z,9.762860
2023-02-23T05:36:50.187Z,9.762794
2023-02-23T05:37:50.183Z,9.762622
2023-02-23T05:38:50.186Z,9.762713
2023-02-23T05:39:50.143Z,9.762753
2023-02-23T05:40:50.146Z,9.762840
2023-02-23T05:41:50.150Z,9.762871
2023-02-23T05:42:50.213Z,9.762851
2023-02-23T05:43:50.131Z,9.762764
2023-02-23T05:44:50.088Z,9.762837
2023-02-23T05:45:50.078Z,9.762769
2023-02-23T05:46:50.151Z,9.762758
2023-02-23T05:47:50.168Z,9.762780
2023-02-23T05:48:50.070Z,9.762834
2023-02-23T05:49:50.078Z,9.762914
2023-02-23T05:50:50.094Z,9.763070
2023-02-23T05:51:50.045Z,9.762826
2023-02-23T05:52:50.081Z,9.762814
2023-02-23T05:53:50.032Z,9.763273
2023-02-23T05:54:49.985Z,9.763419
2023-02-23T05:55:50.000Z,9.763045
2023-02-23T05:56:49.968Z,9.762933
2023-02-23T05:57:50.008Z,9.762938
2023-02-23T05:58:49.977Z,9.762834
2023-02-23T05:59:49.927Z,9.762927
2023-02-23T06:00:49.939Z,9.762792
2023-02-23T06:01:49.963Z,9.762693
2023-02-23T06:02:49.974Z,9.762624
2023-02-23T06:03:50.089Z,9.762703
2023-02-23T06:04:49.920Z,9.762738
2023-02-23T06:05:49.902Z,9.762965
2023-02-23T06:06:49.897Z,9.762870
2023-02-23T06:07:49.895Z,9.762758
2023-02-23T06:08:49.881Z,9.762673
2023-02-23T06:09:49.877Z,9.762724
2023-02-23T06:10:49.881Z,9.762535
2023-02-23T06:11:49.851Z,9.763397
2023-02-23T06:12:49.862Z,9.763347
2023-02-23T06:13:49.946Z,9.762568
2023-02-23T06:14:49.972Z,9.762548
2023-02-23T06:15:49.844Z,9.762555
2023-02-23T06:16:49.788Z,9.763055
2023-02-23T06:17:49.810Z,9.762756
2023-02-23T06:18:49.785Z,9.762856
2023-02-23T06:19:49.755Z,9.762883
2023-02-23T06:20:49.747Z,9.762800
2023-02-23T06:21:49.728Z,9.762763
2023-02-23T06:22:49.727Z,9.762661
2023-02-23T06:23:49.743Z,9.762583
2023-02-23T06:24:51.481Z,9.762580
2023-02-23T06:25:49.732Z,9.762383
2023-02-23T06:26:49.690Z,9.762867
2023-02-23T06:27:49.695Z,9.762686
2023-02-23T06:28:49.653Z,9.762784
2023-02-23T06:29:49.671Z,9.762594
2023-02-23T06:30:49.698Z,9.762784
2023-02-23T06:31:49.734Z,9.762887
2023-02-23T06:32:49.637Z,9.762972
2023-02-23T06:33:49.631Z,9.762936
2023-02-23T06:34:49.643Z,9.762635
2023-02-23T06:35:49.630Z,9.762853
2023-02-23T06:36:49.587Z,9.762751
2023-02-23T06:37:49.600Z,9.762679
2023-02-23T06:38:49.610Z,9.762446
2023-02-23T06:39:49.585Z,9.763052
2023-02-23T06:40:49.555Z,9.762834
2023-02-23T06:41:49.550Z,9.762730
2023-02-23T06:42:49.549Z,9.763003
2023-02-23T06:43:49.510Z,9.762752
2023-02-23T06:44:49.545Z,9.762688
2023-02-23T06:45:49.530Z,9.762738
2023-02-23T06:46:50.628Z,9.762712
2023-02-23T06:47:49.520Z,9.762854
2023-02-23T06:48:49.462Z,9.762721
2023-02-23T06:49:49.460Z,9.762834
2023-02-23T06:50:49.464Z,9.762630
2023-02-23T06:51:49.439Z,9.762605
2023-02-23T06:52:49.457Z,9.762915
2023-02-23T06:53:49.421Z,9.762796
2023-02-23T06:54:49.383Z,9.763028
2023-02-23T06:55:49.394Z,9.762815
2023-02-23T06:56:50.029Z,9.762753
2023-02-23T06:57:49.506Z,9.762561
2023-02-23T06:58:49.342Z,9.762678
2023-02-23T06:59:49.360Z,9.762371
2023-02-23T07:00:49.360Z,9.762732
2023-02-23T07:01:49.355Z,9.762502
2023-02-23T07:02:49.372Z,9.762815
2023-02-23T07:03:49.326Z,9.762779
2023-02-23T07:04:49.345Z,9.763064
2023-02-23T07:05:49.273Z,9.762670
2023-02-23T07:06:49.279Z,9.762756
2023-02-23T07:07:55.315Z,9.762625
2023-02-23T12:14:04.187Z,9.762844
2023-02-23T12:15:04.188Z,9.762856
2023-02-23T12:16:04.225Z,9.762723
2023-02-23T12:17:05.379Z,9.762809
2023-02-23T12:18:05.169Z,9.763052
2023-02-23T12:19:04.122Z,9.763118
2023-02-23T12:20:04.126Z,9.763114
2023-02-23T12:21:04.137Z,9.762689
2023-02-23T12:22:04.100Z,9.762419
2023-02-23T12:23:04.116Z,9.762419
2023-02-23T12:24:04.096Z,9.763158
2023-02-23T12:25:04.060Z,9.762482
2023-02-23T12:26:04.085Z,9.762983
2023-02-23T12:27:04.126Z,9.762712
2023-02-23T12:28:17.879Z,9.762862
2023-02-23T12:29:06.490Z,9.763119
2023-02-23T12:30:04.848Z,9.762590
2023-02-23T12:31:04.213Z,9.762934
2023-02-23T12:32:04.159Z,9.763103
2023-02-23T12:33:04.258Z,9.762810
2023-02-23T12:34:04.173Z,9.762948
2023-02-23T12:35:04.056Z,9.762855
2023-02-23T12:36:04.089Z,9.762562
2023-02-23T12:37:04.004Z,9.762325
2023-02-23T12:38:04.017Z,9.762325
2023-02-23T12:39:03.931Z,9.762325
2023-02-23T12:40:04.431Z,9.763049
2023-02-23T12:41:03.933Z,9.762630
2023-02-23T12:42:03.994Z,9.762810
2023-02-23T12:43:04.045Z,9.762810
2023-02-23T12:44:04.013Z,9.763063
2023-02-23T12:45:04.074Z,9.762648
2023-02-23T12:46:03.968Z,9.762718
2023-02-23T12:47:04.001Z,9.762718
2023-02-23T12:48:03.925Z,9.762718
2023-02-23T12:49:03.860Z,9.762718
2023-02-23T12:50:03.879Z,9.762718
2023-02-23T12:51:04.313Z,9.762718
2023-02-23T12:52:03.929Z,9.762718
2023-02-23T12:53:03.796Z,9.762718
2023-02-23T12:54:03.842Z,9.762718
2023-02-23T12:55:03.809Z,9.762718
2023-02-23T12:56:03.780Z,9.762718
2023-02-23T12:57:04.688Z,9.763223
2023-02-23T12:58:04.778Z,9.763223
2023-02-23T12:59:03.777Z,9.763223
2023-02-23T13:00:03.777Z,9.763223
2023-02-23T13:01:03.869Z,9.763223
2023-02-23T13:02:03.803Z,9.763223
2023-02-23T13:03:03.796Z,9.763087
2023-02-23T13:04:03.714Z,9.763150
2023-02-23T13:05:03.767Z,9.763150
2023-02-23T13:06:04.474Z,9.763270
2023-02-23T13:07:05.284Z,9.763270
2023-02-23T13:08:12.883Z,9.763270
2023-02-23T13:09:05.722Z,9.762974
2023-02-23T13:10:03.797Z,9.763282
2023-02-23T13:11:03.754Z,9.763609
2023-02-23T13:12:03.680Z,9.763609
2023-02-23T13:13:05.319Z,9.762995
2023-02-23T13:14:04.694Z,9.762872
2023-02-23T13:15:03.668Z,9.762944
2023-02-23T13:16:03.645Z,9.763071
2023-02-23T13:17:03.700Z,9.763052
2023-02-23T13:18:03.689Z,9.763105
2023-02-23T13:19:04.953Z,9.763252
2023-02-23T13:20:05.661Z,9.763093
2023-02-23T13:21:03.638Z,9.763016
2023-02-23T13:22:03.640Z,9.762954
2023-02-23T13:23:03.713Z,9.762907
2023-02-23T13:24:03.595Z,9.763014
2023-02-23T13:25:05.181Z,9.763014
2023-02-23T13:26:04.609Z,9.762959
2023-02-23T13:27:03.655Z,9.762816
2023-02-23T13:28:03.568Z,9.762731
2023-02-23T13:29:03.543Z,9.762783
2023-02-23T13:30:03.549Z,9.762966
2023-02-23T13:31:05.907Z,9.762940
2023-02-23T13:32:04.678Z,9.762848
2023-02-23T13:33:03.488Z,9.762824
2023-02-23T13:34:03.585Z,9.762841
2023-02-23T13:35:05.941Z,9.762851
2023-02-23T13:36:03.642Z,9.763033
2023-02-23T13:37:03.608Z,9.762889
2023-02-23T13:38:03.708Z,9.762897
2023-02-23T13:39:10.297Z,9.762770
2023-02-23T13:41:08.786Z,9.762827
2023-02-23T13:41:10.584Z,9.762827
2023-02-23T13:42:59.469Z,9.762798
2023-02-23T13:43:11.923Z,9.762802
2023-02-23T19:45:19.401Z,9.762900
2023-02-23T19:46:19.199Z,9.763396
2023-02-23T19:47:19.171Z,9.763396
2023-02-23T19:48:19.164Z,9.764119
2023-02-23T19:49:19.137Z,9.764158
2023-02-23T19:50:19.211Z,9.764382
2023-02-23T19:51:19.428Z,9.763962
2023-02-23T19:52:19.125Z,9.762536
2023-02-23T19:53:19.101Z,9.763389
2023-02-23T19:54:19.120Z,9.763119
2023-02-23T19:55:19.096Z,9.762996
2023-02-23T19:56:19.085Z,9.762996
2023-02-23T19:57:19.048Z,9.762996
2023-02-23T19:58:19.048Z,9.762996
2023-02-23T19:59:19.057Z,9.762996
2023-02-23T20:00:19.137Z,9.762996
2023-02-23T20:01:19.294Z,9.762996
2023-02-23T20:02:19.054Z,9.762996
2023-02-23T20:03:19.013Z,9.762996
2023-02-23T20:04:18.994Z,9.762996
2023-02-23T20:05:19.017Z,9.762996
2023-02-23T20:06:18.953Z,9.762996
2023-02-23T20:07:18.987Z,9.762996
2023-02-23T20:08:18.958Z,9.762996
2023-02-23T20:09:18.937Z,9.762996
2023-02-23T20:10:18.935Z,9.762996
2023-02-23T20:11:19.371Z,9.762996
2023-02-23T20:12:18.922Z,9.762996
2023-02-23T20:13:18.910Z,9.762996
2023-02-23T20:14:18.903Z,9.762996
2023-02-23T20:15:18.884Z,9.762996
2023-02-23T20:16:18.949Z,9.762996
2023-02-23T20:17:18.860Z,9.762996
2023-02-23T20:18:18.855Z,9.762996
2023-02-23T20:19:18.842Z,9.762996
2023-02-23T20:20:18.845Z,9.762996
2023-02-23T20:21:19.250Z,9.762996
2023-02-23T20:22:18.851Z,9.762996
2023-02-23T20:23:18.781Z,9.762996
2023-02-23T20:24:18.814Z,9.762996
2023-02-23T20:25:18.800Z,9.762996
2023-02-23T20:26:18.774Z,9.762996
2023-02-23T20:27:18.760Z,9.762996
2023-02-23T20:28:18.785Z,9.762996
2023-02-23T20:29:19.200Z,9.762996
2023-02-23T20:30:19.738Z,9.762996
2023-02-23T20:31:26.613Z,9.762996
2023-02-23T20:32:19.832Z,9.762996
2023-02-23T20:33:18.724Z,9.762996
2023-02-23T20:34:18.708Z,9.762996
2023-02-23T20:35:18.724Z,9.762996
2023-02-23T20:36:18.663Z,9.762996
2023-02-23T20:37:21.905Z,9.762996
2023-02-23T20:38:18.809Z,9.762996
2023-02-23T20:39:19.012Z,9.762996
2023-02-23T20:40:22.762Z,9.762996
2023-02-23T20:41:26.013Z,9.762996
2023-02-23T20:42:18.589Z,9.762996
2023-02-23T20:43:18.621Z,9.762996
2023-02-23T20:44:18.570Z,9.762996
2023-02-23T20:45:18.667Z,9.762996
2023-02-23T20:46:18.628Z,9.762996
2023-02-23T20:47:18.579Z,9.762996
2023-02-23T20:48:18.576Z,9.762996
2023-02-23T20:49:18.546Z,9.762996
2023-02-23T20:50:18.577Z,9.762996
2023-02-23T20:51:19.300Z,9.762996
2023-02-23T20:52:18.586Z,9.762996
2023-02-23T20:53:18.510Z,9.762996
2023-02-23T20:54:18.497Z,9.762996
2023-02-23T20:55:18.498Z,9.762996
2023-02-23T20:56:18.497Z,9.762996
2023-02-23T20:57:18.471Z,9.762996
2023-02-23T20:58:18.435Z,9.762996
2023-02-23T20:59:18.427Z,9.762996
2023-02-23T21:00:18.446Z,9.762996
2023-02-23T21:01:18.791Z,9.762996
2023-02-23T21:02:18.448Z,9.762996
2023-02-23T21:03:18.378Z,9.762996
2023-02-23T21:04:18.461Z,9.762996
2023-02-23T21:05:18.397Z,9.762996
2023-02-23T21:06:19.364Z,9.762996
2023-02-23T21:07:18.383Z,9.762996
2023-02-23T21:08:18.346Z,9.762996
2023-02-23T21:09:18.346Z,9.762996
2023-02-23T21:10:18.340Z,9.762996
2023-02-23T21:11:18.562Z,9.762996
2023-02-23T21:12:18.328Z,9.762996
2023-02-23T21:13:18.305Z,9.762996
2023-02-23T21:14:18.302Z,9.762996
2023-02-23T21:15:18.312Z,9.762996
2023-02-23T21:16:18.313Z,9.762996
2023-02-23T21:17:18.297Z,9.762996
2023-02-23T21:18:18.248Z,9.762996
2023-02-23T21:19:18.270Z,9.762996
2023-02-23T21:20:20.031Z,9.762996
2023-02-23T21:21:19.476Z,9.762996
2023-02-23T21:22:18.223Z,9.762996
2023-02-23T21:23:18.197Z,9.762996
2023-02-23T21:24:18.209Z,9.762996
2023-02-23T21:25:18.187Z,9.762996
2023-02-23T21:26:18.158Z,9.762996
2023-02-23T21:27:18.221Z,9.762996
2023-02-23T21:28:18.159Z,9.762996
2023-02-23T21:29:18.127Z,9.762996
2023-02-23T21:30:18.150Z,9.762996
2023-02-23T21:31:18.258Z,9.762996
2023-02-23T21:32:18.175Z,9.762996
2023-02-23T21:33:18.082Z,9.762996
2023-02-23T21:34:18.088Z,9.762996
2023-02-23T21:35:18.099Z,9.762996
2023-02-23T21:36:18.071Z,9.762996
2023-02-23T21:37:18.143Z,9.762996
2023-02-23T21:38:18.083Z,9.762996
2023-02-23T21:39:18.044Z,9.762996
2023-02-23T21:40:18.029Z,9.762996
2023-02-23T21:41:18.609Z,9.762996
2023-02-23T21:42:18.125Z,9.762996
2023-02-23T21:43:17.980Z,9.762996
2023-02-23T21:44:18.059Z,9.762996
2023-02-23T21:45:18.061Z,9.762996
2023-02-23T21:46:18.128Z,9.762996
2023-02-23T21:47:18.003Z,9.762996
2023-02-23T21:48:20.764Z,9.762996
2023-02-23T21:49:22.413Z,9.762996
2023-02-23T21:50:17.919Z,9.762996
2023-02-23T21:51:18.083Z,9.762996
2023-02-23T21:52:17.920Z,9.762996
2023-02-23T21:53:17.920Z,9.762996
2023-02-23T21:54:17.893Z,9.762996
2023-02-23T21:55:22.512Z,9.762996
2023-02-23T21:56:18.947Z,9.762996
2023-02-23T21:57:17.896Z,9.762996
2023-02-23T21:58:17.855Z,9.762996
2023-02-23T21:59:17.828Z,9.762996
2023-02-23T22:00:17.817Z,9.762996
2023-02-23T22:01:17.902Z,9.762996
2023-02-23T22:02:17.790Z,9.762996
2023-02-23T22:03:17.829Z,9.762996
2023-02-23T22:04:17.798Z,9.762996
2023-02-23T22:05:17.778Z,9.762996
2023-02-23T22:06:17.733Z,9.762996
2023-02-23T22:07:18.198Z,9.762996
2023-02-23T22:08:17.762Z,9.762996
2023-02-23T22:09:17.791Z,9.762996
2023-02-23T22:10:17.774Z,9.762996
2023-02-23T22:11:17.765Z,9.762996
2023-02-23T22:12:17.827Z,9.762996
2023-02-23T22:13:17.729Z,9.762996
2023-02-23T22:14:17.745Z,9.762996
2023-02-23T22:15:17.981Z,9.762996
2023-02-23T22:16:17.708Z,9.762996
2023-02-23T22:17:17.649Z,9.762996
2023-02-23T22:18:17.719Z,9.762996
2023-02-23T22:19:17.786Z,9.762996
2023-02-23T22:20:17.610Z,9.762996
2023-02-23T22:21:17.740Z,9.762996
2023-02-23T22:22:17.595Z,9.762996
2023-02-23T22:23:17.667Z,9.762996
2023-02-23T22:24:17.608Z,9.762996
2023-02-23T22:25:17.581Z,9.762996
2023-02-23T22:26:17.552Z,9.762996
2023-02-23T22:27:17.554Z,9.762996
2023-02-23T22:28:17.573Z,9.762996
2023-02-23T22:29:17.567Z,9.762996
2023-02-23T22:30:17.520Z,9.762996
2023-02-23T22:31:17.633Z,9.762996
2023-02-23T22:32:17.757Z,9.762996
2023-02-23T22:33:17.666Z,9.762996
2023-02-23T22:34:17.481Z,9.762996
2023-02-23T22:35:17.520Z,9.762996
2023-02-23T22:36:17.451Z,9.762996
2023-02-23T22:37:17.477Z,9.762996
2023-02-23T22:38:17.602Z,9.762996
2023-02-23T22:39:17.491Z,9.762996
2023-02-23T22:40:17.430Z,9.762996
2023-02-23T22:41:17.408Z,9.762996
2023-02-23T22:42:17.408Z,9.762996
2023-02-23T22:43:17.452Z,9.762996
2023-02-23T22:44:17.385Z,9.762996
2023-02-23T22:45:17.452Z,9.762996
2023-02-23T22:46:17.416Z,9.762996
2023-02-23T22:47:17.356Z,9.762996
2023-02-23T22:48:17.384Z,9.762996
2023-02-23T22:49:17.948Z,9.762996
2023-02-23T22:50:17.465Z,9.762996
2023-02-23T22:51:17.328Z,9.762996
2023-02-23T22:52:17.270Z,9.762996
2023-02-23T22:53:17.352Z,9.762996
2023-02-23T22:54:17.325Z,9.762996
2023-02-23T22:55:17.332Z,9.762996
2023-02-23T22:56:17.236Z,9.762996
2023-02-23T22:57:17.261Z,9.762996
2023-02-23T22:58:17.265Z,9.762996
2023-02-23T22:59:17.245Z,9.762996
2023-02-23T23:00:17.236Z,9.762996
2023-02-23T23:01:17.272Z,9.762996
2023-02-23T23:02:17.245Z,9.762996
2023-02-23T23:03:17.211Z,9.762996
2023-02-23T23:04:17.239Z,9.762996
2023-02-23T23:05:17.140Z,9.762996
2023-02-23T23:06:17.119Z,9.762996
2023-02-23T23:07:17.204Z,9.762996
2023-02-23T23:08:17.223Z,9.762996
2023-02-23T23:09:17.102Z,9.762996
2023-02-23T23:10:17.124Z,9.762996
2023-02-23T23:11:17.082Z,9.762996
2023-02-23T23:12:17.070Z,9.762996
2023-02-23T23:13:17.053Z,9.762996
2023-02-23T23:14:19.698Z,9.762996
2023-02-23T23:15:17.046Z,9.762996
2023-02-23T23:16:30.732Z,9.762996
2023-02-23T23:17:19.070Z,9.762996
2023-02-23T23:18:17.014Z,9.762996
2023-02-23T23:19:17.026Z,9.762996
2023-02-23T23:20:17.013Z,9.762996
2023-02-23T23:21:17.234Z,9.762996
2023-02-23T23:22:16.937Z,9.762996
2023-02-23T23:23:16.969Z,9.762996
2023-02-23T23:24:16.978Z,9.762996
2023-02-23T23:25:16.911Z,9.762996
2023-02-23T23:26:16.904Z,9.762996
2023-02-23T23:27:16.911Z,9.762996
2023-02-23T23:28:16.927Z,9.762996
2023-02-23T23:29:16.930Z,9.762996
2023-02-23T23:30:16.880Z,9.762996
2023-02-23T23:31:16.923Z,9.762996
2023-02-23T23:32:16.956Z,9.762996
2023-02-23T23:33:16.843Z,9.762996
2023-02-23T23:34:16.954Z,9.762996
2023-02-23T23:35:16.816Z,9.762996
2023-02-23T23:36:16.823Z,9.762996
2023-02-23T23:37:16.851Z,9.762996
2023-02-23T23:38:16.813Z,9.762996
2023-02-23T23:39:16.825Z,9.762996
2023-02-23T23:40:16.775Z,9.762996
2023-02-23T23:41:16.797Z,9.762996
2023-02-23T23:42:16.754Z,9.762996
2023-02-23T23:43:16.771Z,9.762996
2023-02-23T23:44:16.749Z,9.762996
2023-02-23T23:45:16.720Z,9.762996
2023-02-23T23:46:16.743Z,9.762996
2023-02-23T23:47:16.729Z,9.762996
2023-02-23T23:48:16.703Z,9.762996
2023-02-23T23:49:16.733Z,9.762996
2023-02-23T23:50:16.677Z,9.762996
2023-02-23T23:51:16.701Z,9.762996
2023-02-23T23:52:16.667Z,9.762996
2023-02-23T23:53:16.635Z,9.762996
2023-02-23T23:54:16.637Z,9.762996
2023-02-23T23:55:16.612Z,9.762996
2023-02-23T23:56:16.605Z,9.762996
2023-02-23T23:57:16.582Z,9.762709
2023-02-23T23:58:16.599Z,9.762752
2023-02-23T23:59:16.603Z,9.762737
